Time;durP1;ratioP1;P1;durP2;ratioP2;P2;SDS_P1;SDS_P2;PMS_P1;PMS_P2;Temp;Humidity;BMP_temperature;BMP_pressure;BME280_temperature;BME280_humidity;BME280_pressure;Samples;Min_cycle;Max_cycle;Signal;HPM_P1;HPM_P2
2023/04/29 00:02:24;;;;;;;15.50;11.50;;;;;;;0.68;97.61;97441.93;110502;1243;69374;-75
2023/04/29 00:04:55;;;;;;;14.90;12.40;;;;;;;0.63;97.02;97439.66;110495;1241;58873;-74
2023/04/29 00:07:27;;;;;;;15.60;11.30;;;;;;;0.60;92.25;97435.82;110726;1244;58866;-75
2023/04/29 00:09:58;;;;;;;13.60;10.40;;;;;;;0.62;90.78;97433.35;110606;1243;70604;-74
2023/04/29 00:12:30;;;;;;;14.80;10.60;;;;;;;0.65;95.53;97433.42;110399;1244;69543;-75
2023/04/29 00:15:01;;;;;;;13.80;9.10;;;;;;;0.63;93.31;97434.35;110504;1241;69902;-75
2023/04/29 00:17:32;;;;;;;11.10;8.10;;;;;;;0.61;92.00;97433.05;110379;1242;58928;-74
2023/04/29 00:20:03;;;;;;;12.20;8.90;;;;;;;0.60;92.90;97430.86;110522;1241;58930;-75
2023/04/29 00:22:31;;;;;;;14.90;9.10;;;;;;;0.59;89.78;97430.55;110562;1241;69577;-75
2023/04/29 00:25:04;;;;;;;10.40;8.00;;;;;;;0.58;90.78;97432.98;110457;1241;68621;-75
2023/04/29 00:27:34;;;;;;;12.10;8.20;;;;;;;0.58;96.71;97433.69;110603;1245;67722;-75
2023/04/29 00:30:08;;;;;;;12.20;9.30;;;;;;;0.55;98.48;97435.30;110277;1241;58940;-74
2023/04/29 00:32:38;;;;;;;15.20;10.50;;;;;;;0.54;100.00;97437.23;110545;1244;59335;-73
2023/04/29 00:35:10;;;;;;;12.70;10.20;;;;;;;0.51;100.00;97433.70;110391;1245;70447;-74
2023/04/29 00:37:40;;;;;;;14.80;10.80;;;;;;;0.47;100.00;97430.73;110171;1244;69124;-73
2023/04/29 00:40:14;;;;;;;15.70;11.20;;;;;;;0.45;100.00;97428.23;110229;1245;69287;-75
2023/04/29 00:42:44;;;;;;;16.30;10.20;;;;;;;0.43;100.00;97426.44;110225;1245;59076;-74
2023/04/29 00:45:15;;;;;;;13.50;10.10;;;;;;;0.40;100.00;97425.14;110183;1243;58939;-74
2023/04/29 00:47:44;;;;;;;15.20;10.20;;;;;;;0.39;100.00;97422.29;110209;1241;69827;-74
2023/04/29 00:50:14;;;;;;;13.80;9.90;;;;;;;0.36;100.00;97421.84;110167;1245;68714;-74
2023/04/29 00:52:44;;;;;;;;;;;;;;;0.34;100.00;97418.30;110147;1244;69273;-74
2023/04/29 00:55:14;;;;;;;13.10;10.60;;;;;;;0.31;100.00;97415.67;110214;1245;58901;-74
2023/04/29 00:57:47;;;;;;;14.60;10.90;;;;;;;0.26;100.00;97415.66;110194;1242;58937;-74
2023/04/29 01:00:17;;;;;;;16.50;11.70;;;;;;;0.21;100.00;97415.96;110211;1241;71167;-75
2023/04/29 01:02:48;;;;;;;16.80;13.10;;;;;;;0.19;100.00;97409.70;110191;1243;70064;-74
2023/04/29 01:05:20;;;;;;;15.20;10.20;;;;;;;0.19;99.97;97414.69;110133;1245;69629;-74
2023/04/29 01:08:23;;;;;;;16.00;9.50;;;;;;;0.19;99.66;97416.90;110132;1245;59222;-74
2023/04/29 01:10:58;;;;;;;15.60;10.00;;;;;;;0.21;97.34;97416.32;110188;1245;58916;-74
2023/04/29 01:13:37;;;;;;;15.20;10.20;;;;;;;0.22;95.48;97416.27;110126;1245;70589;-74
2023/04/29 01:16:14;;;;;;;13.40;9.50;;;;;;;0.25;94.01;97411.23;110160;1245;68466;-74
2023/04/29 01:18:56;;;;;;;12.60;10.40;;;;;;;0.26;93.96;97412.39;110173;1244;68511;-74
2023/04/29 01:21:47;;;;;;;12.30;8.80;;;;;;;0.24;93.81;97416.40;110147;1248;58956;-74
2023/04/29 01:24:17;;;;;;;9.90;7.60;;;;;;;0.19;94.18;97415.52;110147;1245;58878;-74
2023/04/29 01:26:56;;;;;;;10.00;8.00;;;;;;;0.15;94.11;97413.61;110162;1241;70465;-75
2023/04/29 01:29:45;;;;;;;14.00;10.00;;;;;;;0.08;98.07;97408.52;110186;1243;68924;-74
2023/04/29 01:32:29;;;;;;;16.90;11.00;;;;;;;0.00;97.67;97409.43;110060;1241;68350;-74
2023/04/29 01:35:17;;;;;;;12.30;9.80;;;;;;;-0.08;97.30;97401.12;110101;1246;58852;-74
2023/04/29 01:38:18;;;;;;;11.60;9.30;;;;;;;-0.12;99.81;97402.95;110121;1245;58899;-74
2023/04/29 01:41:03;;;;;;;14.90;10.30;;;;;;;-0.14;100.00;97404.20;110001;1245;70588;-74
2023/04/29 01:43:36;;;;;;;14.80;9.30;;;;;;;-0.16;98.21;97404.77;110093;1246;68510;-74
2023/04/29 01:46:20;;;;;;;11.20;9.20;;;;;;;-0.15;94.87;97401.48;110149;1244;68160;-74
2023/04/29 01:48:54;;;;;;;13.60;10.70;;;;;;;-0.14;96.11;97401.98;110097;1245;58890;-74
2023/04/29 01:51:25;;;;;;;14.00;10.10;;;;;;;-0.15;99.56;97403.03;110194;1245;58896;-74
2023/04/29 01:53:56;;;;;;;11.70;9.40;;;;;;;-0.17;100.00;97401.20;110152;1245;70604;-75
2023/04/29 01:56:26;;;;;;;13.40;10.80;;;;;;;-0.17;100.00;97401.58;110154;1246;69416;-74
2023/04/29 01:59:04;;;;;;;15.10;10.80;;;;;;;-0.19;100.00;97398.02;110129;1244;69849;-74
2023/04/29 02:02:08;;;;;;;13.90;10.20;;;;;;;-0.21;100.00;97400.30;109899;1243;59001;-74
2023/04/29 02:04:43;;;;;;;14.30;10.30;;;;;;;-0.24;100.00;97397.49;110100;1245;58896;-74
2023/04/29 02:07:14;;;;;;;14.20;10.90;;;;;;;-0.27;100.00;97396.03;109469;1245;891331;-74
2023/04/29 02:09:44;;;;;;;18.40;12.50;;;;;;;-0.27;100.00;97402.39;110129;1245;69610;-74
2023/04/29 02:12:15;;;;;;;16.50;12.00;;;;;;;-0.27;100.00;97400.83;110189;1243;69213;-74
2023/04/29 02:14:46;;;;;;;;;;;;;;;-0.28;100.00;97401.38;110124;1245;59009;-74
2023/04/29 02:17:16;;;;;;;16.10;11.70;;;;;;;-0.29;100.00;97404.81;110125;1245;58942;-73
2023/04/29 02:19:46;;;;;;;14.80;11.30;;;;;;;-0.33;100.00;97407.85;110095;1246;70055;-74
2023/04/29 02:22:16;;;;;;;;;;;;;;;-0.38;100.00;97409.20;110147;1245;69096;-74
2023/04/29 02:24:48;;;;;;;14.10;9.60;;;;;;;-0.44;100.00;97410.08;110152;1243;69408;-74
2023/04/29 02:27:18;;;;;;;16.00;11.60;;;;;;;-0.47;100.00;97408.61;110144;1245;58939;-74
2023/04/29 02:29:48;;;;;;;17.50;11.90;;;;;;;-0.51;100.00;97408.89;110152;1242;58870;-73
2023/04/29 02:32:19;;;;;;;24.80;15.50;;;;;;;-0.55;100.00;97410.55;110127;1241;69834;-74
2023/04/29 02:34:50;;;;;;;22.10;13.30;;;;;;;-0.58;100.00;97412.02;110148;1241;68723;-74
2023/04/29 02:37:22;;;;;;;15.30;11.70;;;;;;;-0.61;100.00;97413.09;110143;1241;68547;-74
2023/04/29 02:39:51;;;;;;;15.00;11.80;;;;;;;-0.66;100.00;97415.14;110150;1245;58875;-73
2023/04/29 02:42:22;;;;;;;;;;;;;;;-0.75;100.00;97414.01;110144;1244;58882;-73
2023/04/29 02:44:52;;;;;;;15.80;10.50;;;;;;;-0.83;100.00;97416.13;110148;1245;70521;-73
2023/04/29 02:47:23;;;;;;;17.20;12.00;;;;;;;-0.88;100.00;97420.54;110126;1245;69152;-74
2023/04/29 02:49:52;;;;;;;17.50;12.40;;;;;;;-0.92;100.00;97424.41;110129;1245;69328;-74
2023/04/29 02:52:23;;;;;;;15.60;11.30;;;;;;;-0.95;100.00;97422.45;110153;1243;58940;-74
2023/04/29 02:54:52;;;;;;;15.10;11.00;;;;;;;-0.97;100.00;97419.60;110125;1246;58924;-74
2023/04/29 02:57:22;;;;;;;18.80;11.80;;;;;;;-0.98;100.00;97416.20;110101;1245;70569;-74
2023/04/29 02:59:52;;;;;;;17.20;11.40;;;;;;;-0.97;100.00;97413.26;110138;1243;70124;-74
2023/04/29 03:02:23;;;;;;;14.30;11.10;;;;;;;-0.99;100.00;97413.14;110163;1241;69442;-74
2023/04/29 03:04:55;;;;;;;16.90;11.80;;;;;;;-1.00;100.00;97408.38;110115;1246;58956;-74
2023/04/29 03:07:26;;;;;;;16.40;12.00;;;;;;;-0.97;100.00;97408.98;110082;1245;58902;-74
2023/04/29 03:09:57;;;;;;;16.50;12.60;;;;;;;-0.97;100.00;97406.26;110153;1244;68863;-74
2023/04/29 03:12:28;;;;;;;15.10;10.50;;;;;;;-0.98;100.00;97405.23;110142;1246;69235;-74
2023/04/29 03:14:58;;;;;;;15.70;11.60;;;;;;;-0.98;100.00;97408.31;110151;1245;69788;-73
2023/04/29 03:17:29;;;;;;;17.60;12.70;;;;;;;-0.98;100.00;97413.62;110161;1245;59004;-74
2023/04/29 03:19:59;;;;;;;22.10;13.50;;;;;;;-0.97;100.00;97411.71;110191;1241;58844;-74
2023/04/29 03:22:29;;;;;;;19.30;12.80;;;;;;;-0.99;100.00;97412.45;110107;1243;69635;-74
2023/04/29 03:24:58;;;;;;;19.80;13.40;;;;;;;-0.96;100.00;97415.81;110160;1241;69421;-74
2023/04/29 03:27:29;;;;;;;13.90;10.60;;;;;;;-0.95;100.00;97416.13;110137;1245;67672;-74
2023/04/29 03:29:59;;;;;;;16.80;10.90;;;;;;;-0.89;100.00;97416.64;110184;1245;58943;-74
2023/04/29 03:32:29;;;;;;;11.20;9.10;;;;;;;-0.84;100.00;97420.44;110140;1245;58881;-74
2023/04/29 03:34:59;;;;;;;17.80;12.40;;;;;;;-0.79;100.00;97419.77;110114;1246;69624;-74
2023/04/29 03:37:48;;;;;;;17.30;11.60;;;;;;;-0.71;100.00;97414.61;110126;1245;69315;-74
2023/04/29 03:40:23;;;;;;;16.80;11.70;;;;;;;-0.63;100.00;97415.75;110163;1251;69536;-74
2023/04/29 03:42:54;;;;;;;18.40;12.90;;;;;;;-0.57;100.00;97415.91;110138;1247;58989;-74
2023/04/29 03:45:26;;;;;;;16.40;12.30;;;;;;;-0.51;100.00;97418.67;110177;1245;58926;-74
2023/04/29 03:47:55;;;;;;;17.90;12.80;;;;;;;-0.48;100.00;97422.33;110108;1245;70577;-74
2023/04/29 03:50:25;;;;;;;19.90;13.10;;;;;;;-0.44;100.00;97423.41;110076;1251;69275;-74
2023/04/29 03:52:56;;;;;;;17.20;12.00;;;;;;;-0.39;100.00;97422.94;110132;1243;69296;-74
2023/04/29 03:55:26;;;;;;;20.60;13.50;;;;;;;-0.33;100.00;97425.31;110111;1246;58989;-74
2023/04/29 03:57:54;;;;;;;15.90;12.20;;;;;;;-0.23;100.00;97420.41;110157;1246;58878;-74
2023/04/29 04:00:25;;;;;;;16.80;12.00;;;;;;;-0.14;100.00;97423.05;110097;1245;71049;-74
2023/04/29 04:02:55;;;;;;;20.60;14.70;;;;;;;-0.01;100.00;97426.09;110062;1245;69170;-74
2023/04/29 04:05:25;;;;;;;18.30;12.60;;;;;;;0.17;100.00;97420.72;109765;1252;69843;-74
2023/04/29 04:08:00;;;;;;;14.80;11.20;;;;;;;0.39;100.00;97422.63;110111;1246;58944;-74
2023/04/29 04:11:05;;;;;;;14.30;11.60;;;;;;;0.70;100.00;97420.74;110001;1249;58854;-74
2023/04/29 04:13:45;;;;;;;14.40;9.80;;;;;;;1.04;100.00;97420.27;110107;1246;71229;-74
2023/04/29 04:16:14;;;;;;;;;;;;;;;1.38;100.00;97422.00;110130;1245;69043;-74
2023/04/29 04:18:44;;;;;;;14.80;10.90;;;;;;;1.70;100.00;97418.76;110085;1243;69141;-74
2023/04/29 04:21:13;;;;;;;12.80;9.50;;;;;;;1.98;100.00;97422.85;109865;1246;58875;-74
2023/04/29 04:23:45;;;;;;;12.70;10.40;;;;;;;2.23;100.00;97422.95;110140;1245;58848;-74
2023/04/29 04:26:19;;;;;;;13.40;10.30;;;;;;;2.43;98.97;97418.67;110092;1244;70945;-74
2023/04/29 04:29:06;;;;;;;13.00;11.30;;;;;;;2.59;97.04;97414.97;110113;1246;69599;-74
2023/04/29 04:31:56;;;;;;;15.10;11.30;;;;;;;2.75;95.95;97410.17;110087;1245;68872;-74
2023/04/29 04:34:26;;;;;;;15.80;10.10;;;;;;;2.86;96.28;97407.48;110089;1245;59017;-74
2023/04/29 04:36:56;;;;;;;;;;;;;;;2.92;94.93;97409.64;110113;1245;58842;-74
2023/04/29 04:39:25;;;;;;;14.20;9.90;;;;;;;3.04;93.91;97407.21;110109;1245;70541;-74
2023/04/29 04:41:56;;;;;;;14.10;11.10;;;;;;;3.13;92.39;97408.40;110003;1246;69838;-75
2023/04/29 04:44:26;;;;;;;12.50;10.60;;;;;;;3.47;92.01;97407.08;109824;1245;69148;-75
2023/04/29 04:47:10;;;;;;;14.40;10.70;;;;;;;3.85;90.80;97407.76;110079;1246;58899;-74
2023/04/29 04:49:55;;;;;;;12.10;10.10;;;;;;;4.21;88.03;97399.36;110079;1246;58846;-74
2023/04/29 04:52:25;;;;;;;14.80;11.30;;;;;;;4.57;85.72;97399.17;109767;1244;70638;-74
2023/04/29 04:55:01;;;;;;;11.90;9.70;;;;;;;5.04;87.14;97395.29;109837;1246;69816;-74
2023/04/29 04:57:31;;;;;;;11.60;8.80;;;;;;;5.43;83.21;97397.58;109862;1245;68468;-74
2023/04/29 05:00:02;;;;;;;12.20;9.60;;;;;;;5.92;83.98;97398.80;110079;1244;58919;-75
2023/04/29 05:02:33;;;;;;;10.10;8.60;;;;;;;6.19;80.08;97393.89;109858;1246;58943;-73
2023/04/29 05:05:02;;;;;;;10.10;9.00;;;;;;;6.31;76.98;97398.91;110154;1245;71152;-74
2023/04/29 05:07:35;;;;;;;11.60;9.70;;;;;;;6.48;76.18;97397.61;110128;1245;68102;-74
2023/04/29 05:10:07;;;;;;;11.60;9.00;;;;;;;6.70;78.03;97396.91;110136;1246;69811;-74
2023/04/29 05:12:42;;;;;;;10.20;9.00;;;;;;;6.70;75.55;97395.52;110092;1241;58863;-74
2023/04/29 05:15:13;;;;;;;13.40;9.40;;;;;;;6.85;74.58;97395.48;110106;1246;58897;-74
2023/04/29 05:17:43;;;;;;;10.60;9.30;;;;;;;7.01;73.84;97394.05;110094;1245;70643;-74
2023/04/29 05:20:12;;;;;;;10.70;9.20;;;;;;;7.27;74.02;97394.95;110148;1252;69156;-73
2023/04/29 05:22:41;;;;;;;12.80;9.40;;;;;;;7.51;73.29;97392.93;110111;1245;70402;-74
2023/04/29 05:25:11;;;;;;;8.90;8.00;;;;;;;7.79;70.87;97395.58;110129;1245;58941;-74
2023/04/29 05:27:40;;;;;;;9.30;7.50;;;;;;;8.14;68.75;97390.48;110144;1245;58821;-74
2023/04/29 05:30:13;;;;;;;9.10;7.10;;;;;;;8.64;67.93;97380.81;110152;1243;70436;-74
2023/04/29 05:32:42;;;;;;;9.50;7.30;;;;;;;9.15;68.67;97386.64;110155;1243;70246;-74
2023/04/29 05:35:13;;;;;;;7.30;6.50;;;;;;;9.78;68.54;97387.36;110095;1246;69883;-74
2023/04/29 05:37:42;;;;;;;6.80;5.40;;;;;;;10.17;59.11;97385.16;110137;1245;58929;-74
2023/04/29 05:40:26;;;;;;;9.40;6.70;;;;;;;10.62;58.43;97386.09;110165;1245;58879;-76
2023/04/29 05:43:07;;;;;;;7.90;6.70;;;;;;;10.87;55.84;97388.27;110146;1245;69702;-75
2023/04/29 05:45:37;;;;;;;9.00;7.00;;;;;;;11.00;54.96;97388.69;110143;1245;69240;-76
2023/04/29 05:48:06;;;;;;;9.30;6.20;;;;;;;11.16;54.79;97392.21;110125;1245;69255;-75
2023/04/29 05:50:36;;;;;;;8.00;6.50;;;;;;;11.52;55.30;97398.70;110161;1241;58877;-76
2023/04/29 05:53:05;;;;;;;6.90;5.80;;;;;;;11.86;56.03;97403.06;110188;1241;58935;-73
2023/04/29 05:55:35;;;;;;;6.60;5.20;;;;;;;12.07;52.30;97406.50;110224;1246;71160;-75
2023/04/29 05:58:03;;;;;;;7.50;6.30;;;;;;;12.40;50.66;97406.98;110208;1245;69279;-74
2023/04/29 06:00:32;;;;;;;8.90;6.10;;;;;;;12.49;49.01;97403.31;110163;1245;68533;-74
2023/04/29 06:03:03;;;;;;;6.60;5.20;;;;;;;12.43;49.71;97400.80;110180;1245;58855;-73
2023/04/29 06:05:33;;;;;;;5.70;5.10;;;;;;;12.17;47.91;97399.42;110193;1245;58873;-74
2023/04/29 06:08:33;;;;;;;6.60;5.70;;;;;;;11.78;49.62;97397.91;110185;1245;71030;-74
2023/04/29 06:11:05;;;;;;;5.90;5.00;;;;;;;11.90;48.59;97400.88;110208;1243;69552;-74
2023/04/29 06:13:34;;;;;;;7.40;5.40;;;;;;;11.87;48.66;97396.18;110160;1242;69806;-73
2023/04/29 06:16:03;;;;;;;7.40;5.30;;;;;;;12.00;48.65;97394.31;110136;1241;58892;-74
2023/04/29 06:18:34;;;;;;;6.40;5.40;;;;;;;11.90;47.90;97391.21;110173;1246;58970;-74
2023/04/29 06:21:03;;;;;;;7.10;5.80;;;;;;;12.05;47.90;97392.99;110129;1241;69839;-74
2023/04/29 06:23:31;;;;;;;7.20;6.10;;;;;;;12.26;47.57;97386.63;110136;1241;69386;-74
2023/04/29 06:26:06;;;;;;;5.70;4.60;;;;;;;12.30;47.36;97380.00;110095;1241;69309;-74
2023/04/29 06:28:35;;;;;;;5.40;4.40;;;;;;;12.92;48.14;97379.34;110147;1242;58963;-72
2023/04/29 06:31:04;;;;;;;6.00;5.20;;;;;;;13.41;46.90;97380.84;110208;1241;58922;-74
2023/04/29 06:33:33;;;;;;;6.90;5.40;;;;;;;13.59;45.96;97380.21;110130;1241;70571;-73
2023/04/29 06:36:03;;;;;;;6.60;5.60;;;;;;;13.57;45.21;97375.97;110091;1243;69070;-73
2023/04/29 06:38:58;;;;;;;5.10;4.60;;;;;;;13.71;45.51;97374.99;110130;1245;68508;-73
2023/04/29 06:42:00;;;;;;;6.00;4.80;;;;;;;13.86;45.05;97370.54;109848;1246;58926;-73
2023/04/29 06:44:44;;;;;;;5.30;4.80;;;;;;;13.62;44.87;97371.69;110107;1245;59330;-73
2023/04/29 06:47:23;;;;;;;4.90;4.40;;;;;;;13.60;44.92;97369.99;110152;1241;69848;-73
2023/04/29 06:50:10;;;;;;;6.40;4.90;;;;;;;13.59;45.32;97369.16;110148;1243;69690;-73
2023/04/29 06:52:40;;;;;;;8.60;4.90;;;;;;;13.82;45.46;97370.15;110153;1245;69617;-73
2023/04/29 06:55:11;;;;;;;6.20;4.70;;;;;;;13.98;45.10;97367.58;110166;1245;58943;-73
2023/04/29 06:57:42;;;;;;;5.30;4.60;;;;;;;14.41;44.57;97365.83;110152;1241;58930;-73
2023/04/29 07:00:18;;;;;;;6.40;4.60;;;;;;;14.49;44.37;97363.06;110166;1241;70988;-73
2023/04/29 07:02:47;;;;;;;5.70;4.30;;;;;;;14.74;43.04;97359.77;110159;1244;69210;-72
2023/04/29 07:05:18;;;;;;;7.00;4.90;;;;;;;14.91;43.22;97355.98;110167;1245;69778;-72
2023/04/29 07:07:46;;;;;;;6.10;4.80;;;;;;;15.26;42.46;97353.42;110147;1245;58934;-72
2023/04/29 07:10:16;;;;;;;6.10;3.80;;;;;;;15.30;41.02;97356.16;110160;1244;58889;-72
2023/04/29 07:12:45;;;;;;;5.20;4.40;;;;;;;15.45;39.79;97355.54;110187;1241;69487;-72
2023/04/29 07:15:15;;;;;;;8.10;5.00;;;;;;;15.17;40.84;97352.11;110170;1243;69818;-71
2023/04/29 07:17:44;;;;;;;6.20;5.10;;;;;;;14.98;41.72;97351.78;110182;1243;69267;-72
2023/04/29 07:20:14;;;;;;;5.80;4.80;;;;;;;14.98;41.79;97350.03;110197;1242;58957;-72
2023/04/29 07:22:43;;;;;;;5.20;4.30;;;;;;;14.99;41.84;97351.04;110155;1246;58872;-72
2023/04/29 07:25:12;;;;;;;4.30;3.70;;;;;;;14.96;40.72;97347.92;110165;1243;71073;-72
2023/04/29 07:27:41;;;;;;;5.90;4.60;;;;;;;15.08;40.34;97348.06;110164;1243;69348;-72
2023/04/29 07:30:11;;;;;;;5.00;4.40;;;;;;;15.30;40.45;97348.52;110115;1243;69885;-71
2023/04/29 07:32:40;;;;;;;5.30;4.50;;;;;;;15.10;40.00;97352.86;110164;1242;58896;-72
2023/04/29 07:35:10;;;;;;;5.80;4.80;;;;;;;14.94;40.17;97349.13;110131;1241;58896;-72
2023/04/29 07:37:40;;;;;;;4.90;4.30;;;;;;;15.02;39.32;97352.64;110161;1241;70943;-72
2023/04/29 07:40:12;;;;;;;5.60;4.10;;;;;;;14.84;40.08;97348.91;110129;1244;69327;-74
2023/04/29 07:42:41;;;;;;;4.90;4.40;;;;;;;14.86;39.87;97348.73;110129;1245;69523;-71
2023/04/29 07:45:12;;;;;;;4.40;3.90;;;;;;;14.79;40.95;97349.16;110153;1243;58894;-72
2023/04/29 07:47:41;;;;;;;6.30;3.80;;;;;;;15.39;40.26;97347.63;110171;1241;58896;-71
2023/04/29 07:50:11;;;;;;;6.30;4.00;;;;;;;15.52;38.58;97345.02;110133;1243;71182;-72
2023/04/29 07:52:41;;;;;;;6.00;4.50;;;;;;;15.83;38.21;97345.31;110215;1244;70045;-72
2023/04/29 07:55:10;;;;;;;5.50;3.90;;;;;;;16.30;37.93;97345.02;110124;1245;69172;-73
2023/04/29 07:57:39;;;;;;;5.10;3.70;;;;;;;16.95;37.97;97341.65;110111;1245;58896;-72
2023/04/29 08:00:09;;;;;;;4.30;3.70;;;;;;;17.56;37.39;97345.09;110164;1241;58912;-73
2023/04/29 08:02:53;;;;;;;4.50;3.90;;;;;;;17.64;35.36;97347.33;110156;1245;70106;-71
2023/04/29 08:05:24;;;;;;;6.40;4.10;;;;;;;17.07;35.61;97342.79;110113;1244;69038;-72
2023/04/29 08:07:53;;;;;;;5.00;4.00;;;;;;;16.70;36.43;97338.46;109948;1246;69471;-72
2023/04/29 08:10:22;;;;;;;4.40;3.40;;;;;;;16.80;36.50;97339.91;110180;1241;58908;-72
2023/04/29 08:12:51;;;;;;;5.70;4.40;;;;;;;17.03;36.52;97343.11;110089;1244;58860;-71
2023/04/29 08:15:20;;;;;;;5.20;3.80;;;;;;;17.27;34.52;97338.23;110150;1244;70562;-71
2023/04/29 08:17:49;;;;;;;4.90;3.80;;;;;;;16.94;33.25;97331.13;110255;1243;69268;-72
2023/04/29 08:20:18;;;;;;;6.70;4.30;;;;;;;17.39;35.00;97332.56;110115;1245;69216;-71
2023/04/29 08:22:47;;;;;;;5.60;4.30;;;;;;;17.84;34.44;97332.03;110114;1244;58956;-71
2023/04/29 08:25:16;;;;;;;5.10;3.90;;;;;;;18.35;32.52;97323.52;110145;1243;58848;-71
2023/04/29 08:27:45;;;;;;;;;;;;;;;18.42;32.12;97322.47;110149;1241;71097;-72
2023/04/29 08:30:14;;;;;;;4.20;3.70;;;;;;;18.88;32.53;97317.80;110308;1241;70441;-73
2023/04/29 08:32:43;;;;;;;5.00;4.40;;;;;;;19.05;31.17;97314.95;110144;1244;69703;-71
2023/04/29 08:35:12;;;;;;;4.90;3.80;;;;;;;19.54;30.99;97313.27;110210;1242;58907;-71
2023/04/29 08:37:42;;;;;;;4.60;4.20;;;;;;;19.57;29.83;97313.64;110141;1244;58828;-71
2023/04/29 08:40:12;;;;;;;4.60;4.00;;;;;;;19.05;30.45;97309.85;110156;1244;70994;-72
2023/04/29 08:42:44;;;;;;;4.40;3.30;;;;;;;19.19;30.67;97308.45;110239;1251;69826;-72
2023/04/29 08:45:19;;;;;;;5.00;3.50;;;;;;;19.39;29.92;97308.90;110095;1241;69866;-72
2023/04/29 08:47:50;;;;;;;5.30;3.70;;;;;;;19.60;30.88;97306.02;110255;1244;58923;-72
2023/04/29 08:50:19;;;;;;;4.10;3.50;;;;;;;20.42;30.24;97296.53;110276;1246;58874;-71
2023/04/29 08:52:50;;;;;;;4.70;3.80;;;;;;;20.92;28.86;97295.75;110259;1241;69828;-71
2023/04/29 08:55:18;;;;;;;3.80;3.10;;;;;;;21.09;28.26;97298.04;110129;1243;69261;-70
2023/04/29 08:57:53;;;;;;;4.20;3.70;;;;;;;21.43;27.58;97294.77;110112;1244;69737;-71
2023/04/29 09:00:23;;;;;;;5.00;3.60;;;;;;;21.20;27.65;97287.77;110220;1244;58866;-71
2023/04/29 09:02:56;;;;;;;4.20;3.40;;;;;;;21.88;27.91;97285.95;110144;1243;58947;-71
2023/04/29 09:05:26;;;;;;;4.60;3.00;;;;;;;22.32;27.05;97281.31;110291;1243;71197;-71
2023/04/29 09:07:58;;;;;;;3.90;3.00;;;;;;;22.48;25.95;97276.71;110119;1246;69102;-71
2023/04/29 09:10:27;;;;;;;5.10;3.50;;;;;;;21.99;26.05;97276.34;110265;1242;69068;-70
2023/04/29 09:12:57;;;;;;;4.80;3.20;;;;;;;21.65;27.25;97273.00;110079;1241;59010;-70
2023/04/29 09:15:26;;;;;;;4.40;3.10;;;;;;;22.00;27.44;97268.05;110141;1242;58945;-72
2023/04/29 09:17:55;;;;;;;4.40;3.30;;;;;;;22.61;25.59;97260.40;110278;1241;70544;-71
2023/04/29 09:20:26;;;;;;;4.10;3.10;;;;;;;22.68;26.02;97260.17;110278;1243;69594;-71
2023/04/29 09:23:00;;;;;;;4.50;3.20;;;;;;;22.95;24.96;97256.48;110129;1241;69282;-71
2023/04/29 09:25:30;;;;;;;4.50;3.10;;;;;;;22.96;25.19;97253.85;110267;1241;58918;-71
2023/04/29 09:28:15;;;;;;;4.70;2.90;;;;;;;23.14;25.47;97254.26;110122;1243;58874;-71
2023/04/29 09:30:47;;;;;;;4.10;3.10;;;;;;;23.72;24.58;97254.44;110299;1244;71130;-71
2023/04/29 09:33:16;;;;;;;3.60;2.80;;;;;;;24.00;23.82;97248.52;110280;1244;69723;-71
2023/04/29 09:35:45;;;;;;;3.90;3.20;;;;;;;24.06;23.83;97248.51;110211;1242;69903;-72
2023/04/29 09:38:15;;;;;;;4.10;2.80;;;;;;;23.12;24.02;97242.63;110248;1241;58937;-72
2023/04/29 09:40:44;;;;;;;4.40;3.70;;;;;;;23.71;24.01;97242.48;110293;1241;58947;-69
2023/04/29 09:43:26;;;;;;;4.20;3.10;;;;;;;23.44;24.63;97239.70;110329;1241;69918;-71
2023/04/29 09:45:54;;;;;;;5.10;3.10;;;;;;;22.74;24.50;97234.69;110270;1243;69654;-71
2023/04/29 09:48:31;;;;;;;3.70;3.10;;;;;;;23.17;24.84;97233.45;110254;1244;68323;-71
2023/04/29 09:51:01;;;;;;;4.60;3.20;;;;;;;23.85;23.47;97229.30;110258;1244;59316;-72
2023/04/29 09:53:31;;;;;;;4.10;3.20;;;;;;;24.00;23.66;97226.80;110282;1244;58902;-71
2023/04/29 09:56:01;;;;;;;4.80;2.90;;;;;;;24.17;23.16;97224.92;110262;1244;70551;-71
2023/04/29 09:58:35;;;;;;;3.80;3.20;;;;;;;24.26;22.77;97215.04;110302;1243;69877;-71
2023/04/29 10:01:06;;;;;;;4.50;3.40;;;;;;;23.82;23.13;97213.54;110270;1241;69096;-70
2023/04/29 10:03:36;;;;;;;3.80;3.10;;;;;;;23.47;23.02;97212.68;110252;1243;58982;-71
2023/04/29 10:06:07;;;;;;;3.80;2.90;;;;;;;22.81;23.18;97213.26;110270;1245;58895;-71
2023/04/29 10:08:39;;;;;;;3.40;2.70;;;;;;;22.25;24.83;97203.95;110328;1241;71205;-71
2023/04/29 10:11:10;;;;;;;4.40;3.20;;;;;;;23.11;24.40;97203.94;110328;1243;68450;-71
2023/04/29 10:13:42;;;;;;;5.10;3.00;;;;;;;23.84;23.47;97201.70;110263;1245;69708;-71
2023/04/29 10:16:33;;;;;;;4.20;2.90;;;;;;;23.67;22.61;97199.45;110291;1243;58991;-71
2023/04/29 10:19:06;;;;;;;5.30;3.40;;;;;;;23.70;22.54;97198.57;110318;1244;58816;-70
2023/04/29 10:21:36;;;;;;;4.90;3.80;;;;;;;23.79;22.46;97194.16;110242;1244;70668;-70
2023/04/29 10:24:07;;;;;;;3.80;3.40;;;;;;;22.77;23.54;97193.20;110314;1244;68088;-70
2023/04/29 10:26:38;;;;;;;3.60;3.10;;;;;;;22.56;24.11;97191.71;110329;1241;69878;-70
2023/04/29 10:29:09;;;;;;;3.40;2.70;;;;;;;22.47;24.55;97195.89;110293;1244;59152;-71
2023/04/29 10:31:40;;;;;;;4.70;3.50;;;;;;;23.67;23.82;97191.73;110342;1241;59262;-70
2023/04/29 10:34:11;;;;;;;6.00;3.20;;;;;;;24.10;22.50;97185.88;110285;1249;70560;-70
2023/04/29 10:36:40;;;;;;;4.50;3.00;;;;;;;24.15;22.17;97187.98;110254;1241;69081;-70
2023/04/29 10:39:18;;;;;;;5.80;3.50;;;;;;;24.34;22.73;97187.49;110237;1241;68762;-70
2023/04/29 10:41:48;;;;;;;4.50;3.60;;;;;;;24.26;21.68;97185.86;110267;1243;58885;-70
2023/04/29 10:44:16;;;;;;;4.80;3.60;;;;;;;23.75;22.46;97184.54;110293;1244;58825;-71
2023/04/29 10:46:45;;;;;;;4.20;3.80;;;;;;;23.77;22.12;97183.88;110311;1241;69755;-71
2023/04/29 10:49:14;;;;;;;4.40;3.40;;;;;;;23.46;22.29;97184.85;110262;1241;69129;-70
2023/04/29 10:51:44;;;;;;;4.00;3.60;;;;;;;23.65;22.33;97177.48;110255;1243;68286;-71
2023/04/29 10:54:19;;;;;;;3.80;3.20;;;;;;;23.43;23.08;97174.21;110288;1241;58929;-71
2023/04/29 10:56:50;;;;;;;5.50;4.00;;;;;;;24.13;23.39;97176.15;110301;1243;58891;-71
2023/04/29 10:59:32;;;;;;;4.20;3.90;;;;;;;24.46;23.94;97171.97;110322;1241;70552;-71
2023/04/29 11:02:01;;;;;;;6.30;5.20;;;;;;;25.12;23.60;97176.95;110318;1241;70050;-71
2023/04/29 11:04:30;;;;;;;5.60;3.50;;;;;;;25.49;23.40;97172.45;110289;1243;69274;-71
2023/04/29 11:07:01;;;;;;;4.90;4.00;;;;;;;25.86;23.27;97163.01;110324;1241;58999;-71
2023/04/29 11:09:34;;;;;;;4.60;3.60;;;;;;;25.63;23.36;97161.53;110296;1243;58877;-69
2023/04/29 11:12:04;;;;;;;5.10;4.10;;;;;;;25.50;22.20;97164.75;110288;1244;68759;-70
2023/04/29 11:14:51;;;;;;;3.70;3.30;;;;;;;25.38;21.57;97159.23;110461;1241;69056;-71
2023/04/29 11:17:22;;;;;;;5.00;3.90;;;;;;;25.93;22.41;97151.76;110324;1244;69095;-71
2023/04/29 11:19:54;;;;;;;4.10;3.60;;;;;;;26.36;21.85;97154.16;110370;1241;58925;-71
2023/04/29 11:22:32;;;;;;;6.00;3.50;;;;;;;25.72;20.72;97155.89;110273;1243;59004;-71
2023/04/29 11:25:05;;;;;;;4.70;3.30;;;;;;;25.57;20.84;97152.23;110371;1244;70033;-71
2023/04/29 11:27:39;;;;;;;4.00;3.60;;;;;;;24.83;20.93;97156.21;110349;1244;69807;-71
2023/04/29 11:30:08;;;;;;;4.90;3.60;;;;;;;24.39;21.51;97154.17;110290;1241;68532;-71
2023/04/29 11:32:39;;;;;;;4.60;3.20;;;;;;;24.14;21.20;97150.76;110306;1244;58901;-71
2023/04/29 11:35:16;;;;;;;3.60;3.20;;;;;;;24.59;20.71;97149.95;110327;1244;58827;-71
2023/04/29 11:37:46;;;;;;;4.80;3.10;;;;;;;24.91;20.90;97146.16;110302;1243;71157;-71
2023/04/29 11:40:15;;;;;;;4.10;3.20;;;;;;;24.77;19.11;97143.81;110265;1243;69207;-70
2023/04/29 11:42:46;;;;;;;3.50;2.80;;;;;;;25.58;19.52;97134.45;110279;1243;67760;-70
2023/04/29 11:45:19;;;;;;;3.80;3.10;;;;;;;25.83;18.87;97131.34;110267;1251;58938;-70
2023/04/29 11:47:48;;;;;;;5.10;3.10;;;;;;;25.57;19.64;97122.42;110193;1241;58905;-70